Time,TemperatureF,DewpointF,PressureIn,WindDirection,WindDirectionDegrees,WindSpeedMPH,WindSpeedGustMPH,Humidity,HourlyPrecipIn,Conditions,Clouds,dailyrainin,SoftwareType,DateUTC
2013-05-14 00:00:00,41.9,29.6,29.75,North,7,0.0,7.0,61,0.00,,,0.00,VWS V14.00,2013-05-14 04:00:00,
2013-05-14 00:01:00,42.4,34.0,30.01,NW,308,0.0,0.0,72,0.00,,,0.00,VWS V14.00,2013-05-14 04:01:00,
2013-05-14 00:02:00,41.5,33.4,30.00,NW,308,0.0,0.0,73,0.00,,,0.00,VWS V14.00,2013-05-14 04:02:00,
2013-05-14 00:04:00,42.3,34.1,30.01,NW,308,0.0,0.0,73,0.00,,,0.00,VWS V14.00,2013-05-14 04:04:00,
2013-05-14 00:05:00,41.3,33.1,30.00,NW,308,0.0,0.0,72,0.00,,,0.00,VWS V14.00,2013-05-14 04:05:00,
2013-05-14 00:08:00,41.4,33.0,30.00,NW,308,0.0,0.0,72,0.00,,,0.00,VWS V14.00,2013-05-14 04:08:00,
2013-05-14 00:10:00,42.0,34.0,30.01,NW,308,0.0,0.0,73,0.00,,,0.00,VWS V14.00,2013-05-14 04:10:00,
2013-05-14 00:11:00,41.4,33.0,30.00,NW,308,0.0,0.0,72,0.00,,,0.00,VWS V14.00,2013-05-14 04:11:00,
2013-05-14 00:13:00,42.1,34.0,30.01,NW,308,0.0,0.0,73,0.00,,,0.00,VWS V14.00,2013-05-14 04:13:00,
2013-05-14 00:14:00,41.3,33.0,30.00,NW,308,0.0,0.0,72,0.00,,,0.00,VWS V14.00,2013-05-14 04:14:00,
2013-05-14 00:17:00,41.4,33.1,30.00,NW,308,0.0,0.0,72,0.00,,,0.00,VWS V14.00,2013-05-14 04:17:00,
2013-05-14 00:19:00,42.0,34.1,30.01,NW,308,0.0,0.0,73,0.00,,,0.00,VWS V14.00,2013-05-14 04:19:00,
2013-05-14 00:20:00,41.3,32.9,30.00,NW,308,0.0,0.0,72,0.00,,,0.00,VWS V14.00,2013-05-14 04:20:00,
2013-05-14 00:22:00,41.9,34.0,30.01,NW,308,0.0,0.0,73,0.00,,,0.00,VWS V14.00,2013-05-14 04:22:00,
2013-05-14 00:23:00,41.3,32.9,30.00,NW,308,0.0,0.0,72,0.00,,,0.00,VWS V14.00,2013-05-14 04:23:00,
2013-05-14 00:26:00,41.4,33.1,30.00,NW,308,0.0,0.0,72,0.00,,,0.00,VWS V14.00,2013-05-14 04:26:00,
2013-05-14 00:28:00,41.9,34.0,30.00,NW,308,0.0,0.0,73,0.00,,,0.00,VWS V14.00,2013-05-14 04:28:00,
2013-05-14 00:29:00,41.2,32.9,30.00,NW,308,0.0,0.0,72,0.00,,,0.00,VWS V14.00,2013-05-14 04:29:00,
2013-05-14 00:30:00,41.9,30.4,29.75,NNW,329,3.5,7.5,63,0.00,,,0.00,VWS V14.00,2013-05-14 04:30:00,
2013-05-14 00:32:00,41.4,33.1,30.00,NW,308,0.0,0.0,72,0.00,,,0.00,VWS V14.00,2013-05-14 04:32:00,
2013-05-14 00:34:00,41.8,33.9,30.00,NW,308,0.0,0.0,73,0.00,,,0.00,VWS V14.00,2013-05-14 04:34:00,
2013-05-14 00:35:00,41.4,33.0,30.00,NW,308,0.0,0.0,72,0.00,,,0.00,VWS V14.00,2013-05-14 04:35:00,
2013-05-14 00:38:00,41.4,33.1,29.99,NW,308,0.0,0.0,72,0.00,,,0.00,VWS V14.00,2013-05-14 04:38:00,
2013-05-14 00:40:00,41.6,33.6,30.00,NW,308,0.0,0.0,73,0.00,,,0.00,VWS V14.00,2013-05-14 04:40:00,
2013-05-14 00:41:00,41.4,33.2,30.00,NW,308,0.0,0.0,72,0.00,,,0.00,VWS V14.00,2013-05-14 04:41:00,
2013-05-14 00:44:00,41.4,33.4,29.99,NW,308,0.0,0.0,73,0.00,,,0.00,VWS V14.00,2013-05-14 04:44:00,
2013-05-14 00:46:00,41.6,33.7,30.00,NW,308,0.0,0.0,73,0.00,,,0.00,VWS V14.00,2013-05-14 04:46:00,
2013-05-14 00:47:00,41.4,33.3,29.99,NW,308,0.0,0.0,73,0.00,,,0.00,VWS V14.00,2013-05-14 04:47:00,
2013-05-14 00:50:00,41.7,30.9,29.75,NNW,340,4.3,8.9,65,0.00,,,0.00,VWS V14.00,2013-05-14 04:50:00,
2013-05-14 00:51:00,41.4,33.3,29.99,NW,308,0.0,0.0,73,0.00,,,0.00,VWS V14.00,2013-05-14 04:51:00,
2013-05-14 00:52:00,41.6,33.7,30.00,NW,308,0.0,0.0,73,0.00,,,0.00,VWS V14.00,2013-05-14 04:52:00,
2013-05-14 00:54:00,41.4,33.4,29.99,NW,308,0.0,0.0,73,0.00,,,0.00,VWS V14.00,2013-05-14 04:54:00,
2013-05-14 00:57:00,41.2,33.3,29.99,NW,308,0.0,0.0,73,0.00,,,0.00,VWS V14.00,2013-05-14 04:57:00,
2013-05-14 01:00:00,41.3,33.4,29.98,NW,308,0.0,0.0,73,0.00,,,0.00,VWS V14.00,2013-05-14 05:00:00,
2013-05-14 01:03:00,41.1,33.1,29.99,NW,308,0.0,0.0,73,0.00,,,0.00,VWS V14.00,2013-05-14 05:03:00,
2013-05-14 01:06:00,41.1,33.1,29.99,NW,308,0.0,0.0,73,0.00,,,0.00,VWS V14.00,2013-05-14 05:06:00,
2013-05-14 01:09:00,41.1,33.2,29.98,NW,308,0.0,0.0,73,0.00,,,0.00,VWS V14.00,2013-05-14 05:09:00,
2013-05-14 01:12:00,41.0,33.1,29.98,NW,308,0.0,0.0,73,0.00,,,0.00,VWS V14.00,2013-05-14 05:12:00,
2013-05-14 01:15:00,40.8,33.0,29.98,NW,308,0.0,0.0,73,0.00,,,0.00,VWS V14.00,2013-05-14 05:15:00,
2013-05-14 01:18:00,40.7,33.1,29.98,NW,308,0.0,0.0,74,0.00,,,0.00,VWS V14.00,2013-05-14 05:18:00,
2013-05-14 01:21:00,40.5,33.1,29.98,NW,308,0.0,0.0,75,0.00,,,0.00,VWS V14.00,2013-05-14 05:21:00,
2013-05-14 01:24:00,40.4,33.2,29.98,NW,308,0.0,0.0,75,0.00,,,0.00,VWS V14.00,2013-05-14 05:24:00,
2013-05-14 01:27:00,40.3,33.2,29.98,NW,308,0.0,0.0,76,0.00,,,0.00,VWS V14.00,2013-05-14 05:27:00,
2013-05-14 01:30:00,40.3,33.4,29.98,NW,308,0.0,0.0,76,0.00,,,0.00,VWS V14.00,2013-05-14 05:30:00,
2013-05-14 01:33:00,40.0,33.2,29.98,NW,308,0.0,0.0,76,0.00,,,0.00,VWS V14.00,2013-05-14 05:33:00,
2013-05-14 01:36:00,40.0,33.3,29.98,NW,308,0.0,0.0,77,0.00,,,0.00,VWS V14.00,2013-05-14 05:36:00,
2013-05-14 01:39:00,40.0,33.4,29.98,NW,308,0.0,0.0,77,0.00,,,0.00,VWS V14.00,2013-05-14 05:39:00,
2013-05-14 01:42:00,39.9,33.4,29.98,NW,308,0.0,0.0,77,0.00,,,0.00,VWS V14.00,2013-05-14 05:42:00,
2013-05-14 01:45:00,39.8,33.2,29.98,NW,308,0.0,0.0,77,0.00,,,0.00,VWS V14.00,2013-05-14 05:45:00,
2013-05-14 01:48:00,39.7,33.2,29.98,NW,308,0.0,0.0,78,0.00,,,0.00,VWS V14.00,2013-05-14 05:48:00,
2013-05-14 01:51:00,39.5,33.2,29.98,NW,308,0.0,0.0,78,0.00,,,0.00,VWS V14.00,2013-05-14 05:51:00,
2013-05-14 01:54:00,39.5,33.1,29.98,NW,308,0.0,0.0,78,0.00,,,0.00,VWS V14.00,2013-05-14 05:54:00,
2013-05-14 01:57:00,39.4,33.1,29.98,NW,308,0.0,0.0,78,0.00,,,0.00,VWS V14.00,2013-05-14 05:57:00,
2013-05-14 02:00:00,39.3,33.2,29.98,NW,308,0.0,0.0,78,0.00,,,0.00,VWS V14.00,2013-05-14 06:00:00,
2013-05-14 02:03:00,39.2,33.3,29.98,NW,308,0.0,0.0,79,0.00,,,0.00,VWS V14.00,2013-05-14 06:03:00,
2013-05-14 02:06:00,38.9,33.1,29.98,NW,308,0.0,2.2,80,0.00,,,0.00,VWS V14.00,2013-05-14 06:06:00,
2013-05-14 02:09:00,38.7,33.1,29.98,NW,308,0.0,2.2,80,0.00,,,0.00,VWS V14.00,2013-05-14 06:09:00,
2013-05-14 02:12:00,38.5,33.0,29.98,NW,308,0.0,2.2,80,0.00,,,0.00,VWS V14.00,2013-05-14 06:12:00,
2013-05-14 02:15:00,38.3,33.0,29.98,NW,308,0.0,2.2,81,0.00,,,0.00,VWS V14.00,2013-05-14 06:15:00,
2013-05-14 02:18:00,38.2,33.0,29.98,NW,308,0.0,2.2,81,0.00,,,0.00,VWS V14.00,2013-05-14 06:18:00,
2013-05-14 02:21:00,38.0,32.9,29.98,NW,308,0.0,2.2,82,0.00,,,0.00,VWS V14.00,2013-05-14 06:21:00,
2013-05-14 02:24:00,37.7,32.7,29.98,NW,308,0.0,2.2,82,0.00,,,0.00,VWS V14.00,2013-05-14 06:24:00,
2013-05-14 02:27:00,37.8,32.9,29.99,NW,308,0.0,2.2,82,0.00,,,0.00,VWS V14.00,2013-05-14 06:27:00,
2013-05-14 02:30:00,37.5,32.7,29.99,NW,308,0.0,2.2,83,0.00,,,0.00,VWS V14.00,2013-05-14 06:30:00,
2013-05-14 02:33:00,37.4,32.8,29.99,NW,308,0.0,2.2,83,0.00,,,0.00,VWS V14.00,2013-05-14 06:33:00,
2013-05-14 02:36:00,37.3,32.8,29.99,NW,308,0.0,2.2,84,0.00,,,0.00,VWS V14.00,2013-05-14 06:36:00,
2013-05-14 02:39:00,37.1,32.7,29.99,NW,308,0.0,2.2,84,0.00,,,0.00,VWS V14.00,2013-05-14 06:39:00,
2013-05-14 02:42:00,37.1,32.8,29.99,NW,308,0.0,2.2,84,0.00,,,0.00,VWS V14.00,2013-05-14 06:42:00,
2013-05-14 02:45:00,37.1,32.9,29.99,NW,308,0.0,2.2,85,0.00,,,0.00,VWS V14.00,2013-05-14 06:45:00,
2013-05-14 02:48:00,36.8,32.7,29.99,NW,308,0.0,2.2,85,0.00,,,0.00,VWS V14.00,2013-05-14 06:48:00,
2013-05-14 02:51:00,36.8,32.8,29.99,NW,308,0.0,2.2,85,0.00,,,0.00,VWS V14.00,2013-05-14 06:51:00,
2013-05-14 02:54:00,36.7,32.7,29.99,NW,308,0.0,2.2,85,0.00,,,0.00,VWS V14.00,2013-05-14 06:54:00,
2013-05-14 02:57:00,36.4,32.4,30.00,NW,308,0.0,2.2,85,0.00,,,0.00,VWS V14.00,2013-05-14 06:57:00,
2013-05-14 03:00:00,36.4,32.5,30.00,NW,308,0.0,2.2,85,0.00,,,0.00,VWS V14.00,2013-05-14 07:00:00,
2013-05-14 03:03:00,36.2,32.3,29.99,NW,308,0.0,2.2,86,0.00,,,0.00,VWS V14.00,2013-05-14 07:03:00,
2013-05-14 03:06:00,36.1,32.3,30.00,NW,308,0.0,2.2,86,0.00,,,0.00,VWS V14.00,2013-05-14 07:06:00,
2013-05-14 03:09:00,36.0,32.3,30.00,NW,308,0.0,2.2,86,0.00,,,0.00,VWS V14.00,2013-05-14 07:09:00,
2013-05-14 03:12:00,35.9,32.2,30.00,NW,308,0.0,2.2,86,0.00,,,0.00,VWS V14.00,2013-05-14 07:12:00,
2013-05-14 03:15:00,35.7,32.0,30.00,NW,308,0.0,2.2,86,0.00,,,0.00,VWS V14.00,2013-05-14 07:15:00,
2013-05-14 03:18:00,35.6,32.1,30.00,NW,308,0.0,2.2,87,0.00,,,0.00,VWS V14.00,2013-05-14 07:18:00,
2013-05-14 03:21:00,35.5,32.0,30.00,NW,308,0.0,2.2,87,0.00,,,0.00,VWS V14.00,2013-05-14 07:21:00,
2013-05-14 03:24:00,35.5,32.1,30.00,NW,308,0.0,2.2,87,0.00,,,0.00,VWS V14.00,2013-05-14 07:24:00,
2013-05-14 03:27:00,35.3,31.9,30.00,SSE,165,0.0,4.8,87,0.00,,,0.00,VWS V14.00,2013-05-14 07:27:00,
2013-05-14 03:30:00,35.4,32.1,30.00,SSE,165,0.0,4.8,88,0.00,,,0.00,VWS V14.00,2013-05-14 07:30:00,
2013-05-14 03:33:00,35.0,31.8,30.00,SSE,165,0.0,4.8,88,0.00,,,0.00,VWS V14.00,2013-05-14 07:33:00,
2013-05-14 03:36:00,35.0,31.9,30.00,SSE,165,0.0,4.8,88,0.00,,,0.00,VWS V14.00,2013-05-14 07:36:00,
2013-05-14 03:39:00,34.8,31.8,30.00,SSE,165,0.0,4.8,89,0.00,,,0.00,VWS V14.00,2013-05-14 07:39:00,
2013-05-14 03:42:00,34.6,31.7,30.00,SSE,165,0.0,4.8,89,0.00,,,0.00,VWS V14.00,2013-05-14 07:42:00,
2013-05-14 03:45:00,34.4,31.6,30.00,SSE,165,0.0,4.8,89,0.00,,,0.00,VWS V14.00,2013-05-14 07:45:00,
2013-05-14 03:48:00,34.3,31.6,30.00,SSE,165,0.0,4.8,90,0.00,,,0.00,VWS V14.00,2013-05-14 07:48:00,
2013-05-14 03:51:00,34.3,31.7,30.00,SSE,165,0.0,4.8,90,0.00,,,0.00,VWS V14.00,2013-05-14 07:51:00,
2013-05-14 03:54:00,34.1,31.6,30.00,SSE,165,0.0,4.8,90,0.00,,,0.00,VWS V14.00,2013-05-14 07:54:00,
2013-05-14 03:57:00,34.1,31.6,30.00,SSE,165,0.0,4.8,91,0.00,,,0.00,VWS V14.00,2013-05-14 07:57:00,
2013-05-14 04:00:00,34.1,31.7,30.00,SSE,165,0.0,4.8,91,0.00,,,0.00,VWS V14.00,2013-05-14 08:00:00,
2013-05-14 04:04:00,34.0,31.6,30.00,SSE,165,0.0,4.8,91,0.00,,,0.00,VWS V14.00,2013-05-14 08:04:00,
2013-05-14 04:07:00,33.9,31.6,30.00,SSE,165,0.0,4.8,91,0.00,,,0.00,VWS V14.00,2013-05-14 08:07:00,
2013-05-14 04:10:00,33.8,31.5,30.00,SSE,165,0.0,4.8,91,0.00,,,0.00,VWS V14.00,2013-05-14 08:10:00,
2013-05-14 04:13:00,33.7,31.5,30.00,SSE,165,0.0,4.8,92,0.00,,,0.00,VWS V14.00,2013-05-14 08:13:00,
2013-05-14 04:16:00,33.7,31.5,30.00,SSE,165,0.0,4.8,92,0.00,,,0.00,VWS V14.00,2013-05-14 08:16:00,
2013-05-14 04:19:00,33.6,31.5,30.00,SSE,165,0.0,4.8,92,0.00,,,0.00,VWS V14.00,2013-05-14 08:19:00,
2013-05-14 04:22:00,33.6,31.5,30.00,SSE,165,0.0,4.8,92,0.00,,,0.00,VWS V14.00,2013-05-14 08:22:00,
2013-05-14 04:25:00,33.5,31.5,30.00,SSE,165,0.0,4.8,92,0.00,,,0.00,VWS V14.00,2013-05-14 08:25:00,
2013-05-14 04:28:00,33.4,31.4,30.00,SSE,166,0.0,4.9,92,0.00,,,0.00,VWS V14.00,2013-05-14 08:28:00,
2013-05-14 04:31:00,33.5,31.6,30.00,SSE,166,0.0,4.9,92,0.00,,,0.00,VWS V14.00,2013-05-14 08:31:00,
2013-05-14 04:58:00,33.1,31.4,30.01,SSE,166,0.0,4.9,93,0.00,,,0.00,VWS V14.00,2013-05-14 08:58:00,
2013-05-14 05:04:00,33.1,31.4,30.01,SSE,166,0.0,4.9,93,0.00,,,0.00,VWS V14.00,2013-05-14 09:04:00,
2013-05-14 05:07:00,33.0,31.3,30.01,SSE,166,0.0,4.9,93,0.00,,,0.00,VWS V14.00,2013-05-14 09:07:00,
2013-05-14 05:16:00,33.0,31.4,30.01,SSE,166,0.0,4.9,94,0.00,,,0.00,VWS V14.00,2013-05-14 09:16:00,
2013-05-14 05:19:00,32.9,31.4,30.01,SSE,166,0.0,4.9,94,0.00,,,0.00,VWS V14.00,2013-05-14 09:19:00,
2013-05-14 05:28:00,32.8,31.5,30.01,SSE,166,0.0,4.9,95,0.00,,,0.00,VWS V14.00,2013-05-14 09:28:00,
2013-05-14 05:29:00,33.3,31.4,30.00,SSE,166,0.0,4.9,93,0.00,,,0.00,VWS V14.00,2013-05-14 09:29:00,
2013-05-14 05:35:00,33.3,31.5,30.00,SSE,166,0.0,4.9,93,0.00,,,0.00,VWS V14.00,2013-05-14 09:35:00,
2013-05-14 05:42:00,33.2,31.4,30.00,SSE,166,0.0,4.9,93,0.00,,,0.00,VWS V14.00,2013-05-14 09:42:00,
2013-05-14 05:43:00,33.2,32.0,30.02,SSE,166,0.0,4.9,95,0.00,,,0.00,VWS V14.00,2013-05-14 09:43:00,
2013-05-14 05:46:00,33.3,32.2,30.02,SSE,166,0.0,4.9,96,0.00,,,0.00,VWS V14.00,2013-05-14 09:46:00,
2013-05-14 05:48:00,33.3,31.6,30.01,SSE,166,0.0,4.9,93,0.00,,,0.00,VWS V14.00,2013-05-14 09:48:00,
2013-05-14 05:57:00,33.1,31.4,30.01,SSE,166,0.0,4.9,93,0.00,,,0.00,VWS V14.00,2013-05-14 09:57:00,
2013-05-14 05:58:00,33.9,32.9,30.02,SSE,166,0.0,4.9,96,0.00,,,0.00,VWS V14.00,2013-05-14 09:58:00,
2013-05-14 06:06:00,32.9,31.2,30.01,SSE,166,0.0,4.9,94,0.00,,,0.00,VWS V14.00,2013-05-14 10:06:00,
2013-05-14 06:07:00,34.4,33.4,30.02,SSE,166,0.0,4.9,96,0.00,,,0.00,VWS V14.00,2013-05-14 10:07:00,
2013-05-14 06:18:00,33.0,31.5,30.01,SSE,166,0.0,4.9,94,0.00,,,0.00,VWS V14.00,2013-05-14 10:18:00,
2013-05-14 06:27:00,33.0,31.7,30.02,SSE,166,0.0,4.9,95,0.00,,,0.00,VWS V14.00,2013-05-14 10:27:00,
2013-05-14 06:33:00,33.1,31.9,30.02,SSE,166,0.0,4.9,95,0.00,,,0.00,VWS V14.00,2013-05-14 10:33:00,
2013-05-14 06:45:00,33.4,32.3,30.02,SSE,166,0.0,4.9,96,0.00,,,0.00,VWS V14.00,2013-05-14 10:45:00,
2013-05-14 06:51:00,33.6,32.6,30.02,SSE,166,0.0,4.9,96,0.00,,,0.00,VWS V14.00,2013-05-14 10:51:00,
2013-05-14 06:57:00,34.1,33.1,30.02,SSE,166,0.0,4.9,96,0.00,,,0.00,VWS V14.00,2013-05-14 10:57:00,
2013-05-14 07:06:00,34.6,33.6,30.02,SSE,166,0.0,4.9,96,0.00,,,0.00,VWS V14.00,2013-05-14 11:06:00,
2013-05-14 07:12:00,35.2,34.2,30.02,SSE,166,0.0,4.9,96,0.00,,,0.00,VWS V14.00,2013-05-14 11:12:00,
2013-05-14 07:18:00,35.5,34.5,30.02,SSE,166,0.0,4.9,96,0.00,,,0.00,VWS V14.00,2013-05-14 11:18:00,
2013-05-14 07:24:00,35.9,34.6,30.03,SSE,166,0.0,4.9,95,0.00,,,0.00,VWS V14.00,2013-05-14 11:24:00,
2013-05-14 07:30:00,36.2,34.4,30.03,SSE,166,0.0,4.9,93,0.00,,,0.00,VWS V14.00,2013-05-14 11:30:00,
2013-05-14 07:36:00,36.5,34.2,30.03,SSE,166,0.0,4.9,91,0.00,,,0.00,VWS V14.00,2013-05-14 11:36:00,
2013-05-14 07:42:00,36.9,34.1,30.03,SSE,166,0.0,4.9,90,0.00,,,0.00,VWS V14.00,2013-05-14 11:42:00,
2013-05-14 07:48:00,37.1,33.8,30.03,SSE,166,0.0,4.9,88,0.00,,,0.00,VWS V14.00,2013-05-14 11:48:00,
2013-05-14 07:54:00,37.4,33.9,30.04,SSE,166,0.0,4.9,87,0.00,,,0.00,VWS V14.00,2013-05-14 11:54:00,
2013-05-14 08:00:00,37.9,34.4,30.03,SSE,166,0.0,4.9,87,0.00,,,0.00,VWS V14.00,2013-05-14 12:00:00,
2013-05-14 08:06:00,38.4,34.6,30.04,SSE,166,0.0,4.9,86,0.00,,,0.00,VWS V14.00,2013-05-14 12:06:00,
2013-05-14 08:12:00,38.7,34.7,30.04,SE,143,0.0,4.9,85,0.00,,,0.00,VWS V14.00,2013-05-14 12:12:00,
2013-05-14 08:18:00,39.0,34.4,30.04,SE,143,0.0,4.9,83,0.00,,,0.00,VWS V14.00,2013-05-14 12:18:00,
2013-05-14 08:24:00,39.5,34.5,30.04,SE,143,0.0,4.9,82,0.00,,,0.00,VWS V14.00,2013-05-14 12:24:00,
2013-05-14 08:30:00,39.8,34.5,30.04,SE,143,0.0,4.9,81,0.00,,,0.00,VWS V14.00,2013-05-14 12:30:00,
2013-05-14 08:36:00,40.1,34.6,30.04,SE,143,0.0,4.9,81,0.00,,,0.00,VWS V14.00,2013-05-14 12:36:00,
2013-05-14 08:42:00,40.8,35.2,30.04,SE,143,0.0,4.9,80,0.00,,,0.00,VWS V14.00,2013-05-14 12:42:00,
2013-05-14 08:48:00,41.4,35.5,30.04,WNW,285,2.5,5.1,79,0.00,,,0.00,VWS V14.00,2013-05-14 12:48:00,
2013-05-14 08:54:00,41.8,34.9,30.04,WNW,283,0.0,5.1,76,0.00,,,0.00,VWS V14.00,2013-05-14 12:54:00,
2013-05-14 09:01:00,42.2,34.8,30.03,WNW,283,0.0,5.1,75,0.00,,,0.00,VWS V14.00,2013-05-14 13:01:00,
2013-05-14 09:07:00,42.6,34.9,30.04,WNW,283,0.0,5.1,74,0.00,,,0.00,VWS V14.00,2013-05-14 13:07:00,
2013-05-14 09:13:00,43.1,34.9,30.03,WNW,283,0.0,5.1,72,0.00,,,0.00,VWS V14.00,2013-05-14 13:13:00,
2013-05-14 09:19:00,43.6,35.3,30.03,NNE,15,0.0,5.1,72,0.00,,,0.00,VWS V14.00,2013-05-14 13:19:00,
2013-05-14 09:25:00,44.3,35.3,30.03,North,354,2.7,5.1,70,0.00,,,0.00,VWS V14.00,2013-05-14 13:25:00,
2013-05-14 09:31:00,44.6,35.2,30.03,NNE,28,0.0,5.7,69,0.00,,,0.00,VWS V14.00,2013-05-14 13:31:00,
2013-05-14 09:37:00,44.6,34.8,30.02,WNW,292,0.0,5.7,68,0.00,,,0.00,VWS V14.00,2013-05-14 13:37:00,
2013-05-14 09:43:00,45.0,35.1,30.02,NW,323,3.5,6.0,68,0.00,,,0.00,VWS V14.00,2013-05-14 13:43:00,
2013-05-14 09:49:00,45.4,35.0,30.02,North,3,0.0,6.0,67,0.00,,,0.00,VWS V14.00,2013-05-14 13:49:00,
2013-05-14 09:55:00,46.0,35.1,30.02,NNW,338,0.0,6.0,65,0.00,,,0.00,VWS V14.00,2013-05-14 13:55:00,
2013-05-14 10:01:00,46.7,35.3,30.02,North,1,2.6,6.0,64,0.00,,,0.00,VWS V14.00,2013-05-14 14:01:00,
2013-05-14 10:07:00,47.3,35.5,30.02,NW,315,0.0,6.0,63,0.00,,,0.00,VWS V14.00,2013-05-14 14:07:00,
2013-05-14 10:13:00,47.9,35.4,30.02,NNW,335,5.4,9.6,62,0.00,,,0.00,VWS V14.00,2013-05-14 14:13:00,
2013-05-14 10:19:00,48.6,35.4,30.02,SSE,148,0.0,9.6,60,0.00,,,0.00,VWS V14.00,2013-05-14 14:19:00,
2013-05-14 10:25:00,49.3,35.3,30.01,North,356,5.2,9.6,58,0.00,,,0.00,VWS V14.00,2013-05-14 14:25:00,
2013-05-14 10:31:00,49.8,34.6,30.01,WNW,297,0.0,9.6,56,0.00,,,0.00,VWS V14.00,2013-05-14 14:31:00,
2013-05-14 10:37:00,50.1,34.8,30.01,NNW,340,0.0,9.6,55,0.00,,,0.00,VWS V14.00,2013-05-14 14:37:00,
2013-05-14 10:43:00,50.3,34.0,30.01,NW,304,5.0,9.6,53,0.00,,,0.00,VWS V14.00,2013-05-14 14:43:00,
2013-05-14 10:49:00,50.9,34.2,30.02,NW,308,0.0,9.6,52,0.00,,,0.00,VWS V14.00,2013-05-14 14:49:00,
2013-05-14 10:55:00,51.4,34.2,30.01,West,276,0.0,9.6,52,0.00,,,0.00,VWS V14.00,2013-05-14 14:55:00,
2013-05-14 11:01:00,51.1,33.4,30.01,West,277,0.0,9.6,50,0.00,,,0.00,VWS V14.00,2013-05-14 15:01:00,
2013-05-14 11:07:00,51.3,33.2,30.01,NNW,328,5.0,9.6,50,0.00,,,0.00,VWS V14.00,2013-05-14 15:07:00,
2013-05-14 11:13:00,52.2,33.3,30.01,North,1,0.0,10.4,48,0.00,,,0.00,VWS V14.00,2013-05-14 15:13:00,
2013-05-14 11:19:00,52.9,32.5,30.01,NNW,339,3.1,10.4,46,0.00,,,0.00,VWS V14.00,2013-05-14 15:19:00,
2013-05-14 11:25:00,53.5,32.7,30.01,NNW,345,3.4,10.4,45,0.00,,,0.00,VWS V14.00,2013-05-14 15:25:00,
2013-05-14 11:31:00,54.3,32.6,30.01,NW,305,3.2,10.4,44,0.00,,,0.00,VWS V14.00,2013-05-14 15:31:00,
2013-05-14 11:37:00,54.8,32.1,30.01,NNW,338,6.3,10.4,42,0.00,,,0.00,VWS V14.00,2013-05-14 15:37:00,
2013-05-14 11:43:00,54.5,30.0,30.01,NNW,333,6.2,10.4,39,0.00,,,0.00,VWS V14.00,2013-05-14 15:43:00,
2013-05-14 11:49:00,54.2,29.4,30.01,NW,323,5.8,10.4,38,0.00,,,0.00,VWS V14.00,2013-05-14 15:49:00,
2013-05-14 11:55:00,54.8,30.3,30.01,North,356,4.6,10.4,39,0.00,,,0.00,VWS V14.00,2013-05-14 15:55:00,
2013-05-14 12:01:00,54.5,28.6,30.01,NNW,338,3.4,10.4,37,0.00,,,0.00,VWS V14.00,2013-05-14 16:01:00,
2013-05-14 12:07:00,54.0,28.6,30.01,NNW,336,0.0,10.4,37,0.00,,,0.00,VWS V14.00,2013-05-14 16:07:00,
2013-05-14 12:14:00,54.1,29.3,30.01,North,353,3.3,10.4,38,0.00,,,0.00,VWS V14.00,2013-05-14 16:14:00,
2013-05-14 12:20:00,54.2,30.0,30.02,NNW,343,2.9,10.4,39,0.00,,,0.00,VWS V14.00,2013-05-14 16:20:00,
2013-05-14 12:26:00,54.5,30.3,30.01,NNW,338,3.0,10.4,39,0.00,,,0.00,VWS V14.00,2013-05-14 16:26:00,
2013-05-14 12:32:00,54.6,29.9,30.01,NW,326,5.4,10.4,39,0.00,,,0.00,VWS V14.00,2013-05-14 16:32:00,
2013-05-14 12:38:00,54.5,29.6,30.01,NNW,332,0.0,10.4,38,0.00,,,0.00,VWS V14.00,2013-05-14 16:38:00,
2013-05-14 12:44:00,55.1,30.6,30.01,North,350,2.8,10.4,39,0.00,,,0.00,VWS V14.00,2013-05-14 16:44:00,
2013-05-14 12:50:00,55.2,29.9,30.01,SSE,153,2.0,10.4,38,0.00,,,0.00,VWS V14.00,2013-05-14 16:50:00,
2013-05-14 12:56:00,55.2,30.5,30.01,West,276,0.0,10.4,39,0.00,,,0.00,VWS V14.00,2013-05-14 16:56:00,
2013-05-14 13:02:00,55.3,30.3,30.01,NNW,342,0.0,10.4,38,0.00,,,0.00,VWS V14.00,2013-05-14 17:02:00,
2013-05-14 13:08:00,55.0,30.1,30.02,NNW,347,0.0,10.4,38,0.00,,,0.00,VWS V14.00,2013-05-14 17:08:00,
2013-05-14 13:14:00,54.5,29.4,30.02,North,0,0.0,10.4,38,0.00,,,0.00,VWS V14.00,2013-05-14 17:14:00,
2013-05-14 13:20:00,54.1,29.1,30.01,NW,323,4.2,10.4,38,0.00,,,0.00,VWS V14.00,2013-05-14 17:20:00,
2013-05-14 13:26:00,54.2,30.2,30.02,NNW,342,1.2,10.4,40,0.00,,,0.00,VWS V14.00,2013-05-14 17:26:00,
2013-05-14 13:32:00,54.6,30.4,30.02,NNW,336,0.0,10.4,39,0.00,,,0.00,VWS V14.00,2013-05-14 17:32:00,
2013-05-14 13:38:00,54.4,30.0,30.02,North,350,3.0,10.4,39,0.00,,,0.00,VWS V14.00,2013-05-14 17:38:00,
2013-05-14 13:44:00,54.3,30.0,30.02,North,352,0.0,10.4,39,0.00,,,0.00,VWS V14.00,2013-05-14 17:44:00,
2013-05-14 13:50:00,54.2,29.9,30.01,NNW,338,4.8,10.4,39,0.00,,,0.00,VWS V14.00,2013-05-14 17:50:00,
2013-05-14 13:56:00,54.4,30.0,30.01,North,356,4.4,10.4,39,0.00,,,0.00,VWS V14.00,2013-05-14 17:56:00,
2013-05-14 14:02:00,54.9,30.4,30.01,WSW,238,1.6,10.4,39,0.00,,,0.00,VWS V14.00,2013-05-14 18:02:00,
2013-05-14 14:08:00,55.3,30.0,30.01,North,8,3.4,10.4,38,0.00,,,0.00,VWS V14.00,2013-05-14 18:08:00,
2013-05-14 14:14:00,55.5,29.1,30.01,North,354,3.5,10.4,36,0.00,,,0.00,VWS V14.00,2013-05-14 18:14:00,
2013-05-14 14:20:00,55.0,28.2,30.01,NW,316,3.4,10.4,36,0.00,,,0.00,VWS V14.00,2013-05-14 18:20:00,
2013-05-14 14:26:00,54.4,28.4,30.01,North,359,3.5,10.4,37,0.00,,,0.00,VWS V14.00,2013-05-14 18:26:00,
2013-05-14 14:32:00,54.3,29.2,30.01,NNW,343,6.1,10.4,38,0.00,,,0.00,VWS V14.00,2013-05-14 18:32:00,
2013-05-14 14:38:00,54.8,29.4,30.00,NW,323,1.3,10.4,38,0.00,,,0.00,VWS V14.00,2013-05-14 18:38:00,
2013-05-14 14:44:00,55.5,28.9,30.00,SSW,211,0.0,10.4,36,0.00,,,0.00,VWS V14.00,2013-05-14 18:44:00,
2013-05-14 14:50:00,55.8,28.8,30.00,North,349,2.8,10.4,35,0.00,,,0.00,VWS V14.00,2013-05-14 18:50:00,
2013-05-14 14:56:00,55.6,28.4,30.00,North,350,5.1,10.4,35,0.00,,,0.00,VWS V14.00,2013-05-14 18:56:00,
2013-05-14 15:02:00,55.1,28.4,30.00,North,3,2.7,10.4,36,0.00,,,0.00,VWS V14.00,2013-05-14 19:02:00,
2013-05-14 15:08:00,54.5,28.3,30.00,NNW,329,2.9,10.4,36,0.00,,,0.00,VWS V14.00,2013-05-14 19:08:00,
2013-05-14 15:14:00,54.5,29.0,30.00,NNW,339,0.0,10.4,37,0.00,,,0.00,VWS V14.00,2013-05-14 19:14:00,
2013-05-14 15:20:00,54.6,29.3,30.00,North,353,0.0,10.4,38,0.00,,,0.00,VWS V14.00,2013-05-14 19:20:00,
2013-05-14 15:26:00,54.5,28.9,30.00,NW,326,6.1,10.4,37,0.00,,,0.00,VWS V14.00,2013-05-14 19:26:00,
2013-05-14 15:33:00,53.9,28.0,30.00,North,350,0.0,10.4,37,0.00,,,0.00,VWS V14.00,2013-05-14 19:33:00,
2013-05-14 15:39:00,53.7,28.6,30.00,NNW,336,0.0,10.4,38,0.00,,,0.00,VWS V14.00,2013-05-14 19:39:00,
2013-05-14 15:45:00,53.8,29.6,29.99,NNW,340,0.0,10.4,39,0.00,,,0.00,VWS V14.00,2013-05-14 19:45:00,
2013-05-14 15:51:00,54.2,29.7,29.99,North,352,3.4,10.4,39,0.00,,,0.00,VWS V14.00,2013-05-14 19:51:00,
2013-05-14 15:57:00,55.0,29.9,29.98,SW,233,0.0,10.4,38,0.00,,,0.00,VWS V14.00,2013-05-14 19:57:00,
2013-05-14 16:03:00,56.3,29.0,29.98,NW,323,5.4,10.4,35,0.00,,,0.00,VWS V14.00,2013-05-14 20:03:00,
2013-05-14 16:09:00,57.5,29.7,29.98,NW,318,3.5,10.4,34,0.00,,,0.00,VWS V14.00,2013-05-14 20:09:00,
2013-05-14 16:15:00,58.8,29.7,29.97,ESE,107,0.0,10.4,33,0.00,,,0.00,VWS V14.00,2013-05-14 20:15:00,
2013-05-14 16:21:00,59.7,29.3,29.97,North,350,0.0,10.4,31,0.00,,,0.00,VWS V14.00,2013-05-14 20:21:00,
2013-05-14 16:27:00,60.4,27.3,29.97,NW,308,0.0,10.4,28,0.00,,,0.00,VWS V14.00,2013-05-14 20:27:00,
2013-05-14 16:33:00,60.7,27.9,29.97,NNW,342,4.5,10.4,28,0.00,,,0.00,VWS V14.00,2013-05-14 20:33:00,
2013-05-14 16:39:00,61.4,27.3,29.97,WNW,302,3.3,10.4,27,0.00,,,0.00,VWS V14.00,2013-05-14 20:39:00,
2013-05-14 16:45:00,62.0,26.9,29.97,North,359,2.9,10.4,26,0.00,,,0.00,VWS V14.00,2013-05-14 20:45:00,
2013-05-14 16:51:00,61.9,25.0,29.97,NW,311,2.3,10.4,24,0.00,,,0.00,VWS V14.00,2013-05-14 20:51:00,
2013-05-14 16:57:00,60.9,24.9,29.97,WNW,301,2.9,10.4,25,0.00,,,0.00,VWS V14.00,2013-05-14 20:57:00,
2013-05-14 17:03:00,59.5,25.0,29.97,West,278,0.0,10.4,26,0.00,,,0.00,VWS V14.00,2013-05-14 21:03:00,
2013-05-14 17:09:00,58.7,25.6,29.96,West,278,0.0,10.4,28,0.00,,,0.00,VWS V14.00,2013-05-14 21:09:00,
2013-05-14 17:15:00,59.0,28.4,29.97,West,277,0.0,10.4,31,0.00,,,0.00,VWS V14.00,2013-05-14 21:15:00,
2013-05-14 17:21:00,59.8,26.9,29.96,North,353,0.0,10.4,28,0.00,,,0.00,VWS V14.00,2013-05-14 21:21:00,
2013-05-14 17:27:00,61.7,27.6,29.96,North,352,0.0,10.4,27,0.00,,,0.00,VWS V14.00,2013-05-14 21:27:00,
2013-05-14 17:33:00,62.5,24.4,29.96,North,353,5.1,10.4,23,0.00,,,0.00,VWS V14.00,2013-05-14 21:33:00,
2013-05-14 17:39:00,61.5,22.5,29.96,North,7,0.0,10.4,22,0.00,,,0.00,VWS V14.00,2013-05-14 21:39:00,
2013-05-14 17:45:00,60.5,22.6,29.96,NNW,328,0.0,10.4,23,0.00,,,0.00,VWS V14.00,2013-05-14 21:45:00,
2013-05-14 17:52:00,59.4,22.6,29.96,North,350,3.2,10.4,24,0.00,,,0.00,VWS V14.00,2013-05-14 21:52:00,
2013-05-14 17:58:00,58.4,22.3,29.96,North,352,0.0,10.4,24,0.00,,,0.00,VWS V14.00,2013-05-14 21:58:00,
2013-05-14 18:04:00,57.9,23.7,29.95,North,359,0.0,10.4,26,0.00,,,0.00,VWS V14.00,2013-05-14 22:04:00,
2013-05-14 18:10:00,58.0,23.9,29.96,North,352,3.0,10.4,27,0.00,,,0.00,VWS V14.00,2013-05-14 22:10:00,
2013-05-14 18:16:00,57.4,23.6,29.96,WNW,301,0.0,10.4,27,0.00,,,0.00,VWS V14.00,2013-05-14 22:16:00,
2013-05-14 18:22:00,56.5,23.4,29.96,NW,314,0.0,10.4,28,0.00,,,0.00,VWS V14.00,2013-05-14 22:22:00,
2013-05-14 18:28:00,55.8,24.7,29.96,NW,314,0.0,10.4,30,0.00,,,0.00,VWS V14.00,2013-05-14 22:28:00,
2013-05-14 18:34:00,55.4,25.7,29.96,NW,322,2.7,10.4,32,0.00,,,0.00,VWS V14.00,2013-05-14 22:34:00,
2013-05-14 18:40:00,54.9,25.2,29.96,NNW,328,3.3,10.4,31,0.00,,,0.00,VWS V14.00,2013-05-14 22:40:00,
2013-05-14 18:46:00,54.5,25.4,29.96,NNW,329,2.9,10.4,32,0.00,,,0.00,VWS V14.00,2013-05-14 22:46:00,
2013-05-14 18:52:00,54.4,25.7,29.96,NNW,328,3.2,10.4,33,0.00,,,0.00,VWS V14.00,2013-05-14 22:52:00,
2013-05-14 18:58:00,54.1,25.6,29.96,NW,322,0.0,10.4,33,0.00,,,0.00,VWS V14.00,2013-05-14 22:58:00,
2013-05-14 19:04:00,53.7,26.6,29.96,NW,322,0.0,10.4,35,0.00,,,0.00,VWS V14.00,2013-05-14 23:04:00,
2013-05-14 19:10:00,53.5,27.4,29.96,NW,322,0.0,10.4,36,0.00,,,0.00,VWS V14.00,2013-05-14 23:10:00,
2013-05-14 19:16:00,53.1,27.8,29.96,NW,322,0.0,10.4,37,0.00,,,0.00,VWS V14.00,2013-05-14 23:16:00,
2013-05-14 19:22:00,53.0,28.3,29.96,NW,322,0.0,10.4,38,0.00,,,0.00,VWS V14.00,2013-05-14 23:22:00,
2013-05-14 19:28:00,52.5,28.5,29.96,NW,322,0.0,10.4,39,0.00,,,0.00,VWS V14.00,2013-05-14 23:28:00,
2013-05-14 19:34:00,52.3,28.6,29.96,NW,322,0.0,10.4,40,0.00,,,0.00,VWS V14.00,2013-05-14 23:34:00,
2013-05-14 19:40:00,51.9,28.9,29.96,NW,322,0.0,10.4,41,0.00,,,0.00,VWS V14.00,2013-05-14 23:40:00,
2013-05-14 19:46:00,51.6,29.6,29.97,NW,322,0.0,10.4,43,0.00,,,0.00,VWS V14.00,2013-05-14 23:46:00,
2013-05-14 19:52:00,51.0,30.0,29.97,NW,322,0.0,10.4,44,0.00,,,0.00,VWS V14.00,2013-05-14 23:52:00,
2013-05-14 19:58:00,50.6,30.3,29.97,NW,322,0.0,10.4,46,0.00,,,0.00,VWS V14.00,2013-05-14 23:58:00,
2013-05-14 20:04:00,50.1,30.4,29.97,NW,322,0.0,10.4,46,0.00,,,0.00,VWS V14.00,2013-05-15 00:04:00,
2013-05-14 20:10:00,49.5,30.7,29.97,NW,322,0.0,10.4,48,0.00,,,0.00,VWS V14.00,2013-05-15 00:10:00,
2013-05-14 20:16:00,48.8,31.1,29.97,NW,322,0.0,10.4,50,0.00,,,0.00,VWS V14.00,2013-05-15 00:16:00,
2013-05-14 20:22:00,48.2,31.2,29.97,NW,322,0.0,10.4,52,0.00,,,0.00,VWS V14.00,2013-05-15 00:22:00,
2013-05-14 20:28:00,47.5,31.1,29.97,NW,322,0.0,10.4,53,0.00,,,0.00,VWS V14.00,2013-05-15 00:28:00,
2013-05-14 20:34:00,47.0,31.1,29.97,NNW,330,3.4,10.4,54,0.00,,,0.00,VWS V14.00,2013-05-15 00:34:00,
2013-05-14 20:41:00,46.5,31.2,29.97,SW,218,4.6,10.4,55,0.00,,,0.00,VWS V14.00,2013-05-15 00:41:00,
2013-05-14 20:47:00,46.0,31.4,29.97,South,170,4.7,10.4,56,0.00,,,0.00,VWS V14.00,2013-05-15 00:47:00,
2013-05-14 20:53:00,45.2,31.0,29.98,SSE,163,5.6,10.4,57,0.00,,,0.00,VWS V14.00,2013-05-15 00:53:00,
2013-05-14 20:59:00,44.5,30.6,29.98,SE,145,4.9,10.4,58,0.00,,,0.00,VWS V14.00,2013-05-15 00:59:00,
2013-05-14 21:05:00,44.2,30.8,29.98,SSE,156,4.7,10.4,59,0.00,,,0.00,VWS V14.00,2013-05-15 01:05:00,
2013-05-14 21:11:00,43.7,30.9,29.98,SE,146,4.3,10.4,60,0.00,,,0.00,VWS V14.00,2013-05-15 01:11:00,
2013-05-14 21:17:00,43.3,31.0,29.98,SSE,163,4.7,10.4,62,0.00,,,0.00,VWS V14.00,2013-05-15 01:17:00,
2013-05-14 21:23:00,42.8,30.9,29.98,SE,143,4.6,10.4,62,0.00,,,0.00,VWS V14.00,2013-05-15 01:23:00,
2013-05-14 21:29:00,42.4,30.7,29.98,SSE,149,4.5,10.4,63,0.00,,,0.00,VWS V14.00,2013-05-15 01:29:00,
2013-05-14 21:35:00,42.3,31.0,29.99,SE,134,4.3,10.4,64,0.00,,,0.00,VWS V14.00,2013-05-15 01:35:00,
2013-05-14 21:41:00,41.9,30.9,30.00,SSE,167,5.3,10.4,65,0.00,,,0.00,VWS V14.00,2013-05-15 01:41:00,
2013-05-14 21:47:00,41.7,30.9,29.99,SE,134,5.9,10.4,65,0.00,,,0.00,VWS V14.00,2013-05-15 01:47:00,
2013-05-14 21:53:00,41.6,31.0,30.00,SE,141,5.0,10.4,66,0.00,,,0.00,VWS V14.00,2013-05-15 01:53:00,
2013-05-14 21:59:00,41.3,31.0,30.00,SE,142,5.2,10.4,66,0.00,,,0.00,VWS V14.00,2013-05-15 01:59:00,
2013-05-14 22:05:00,41.4,31.2,30.00,SSE,153,5.7,10.4,67,0.00,,,0.00,VWS V14.00,2013-05-15 02:05:00,
2013-05-14 22:11:00,41.3,31.3,29.99,SSE,158,5.0,10.4,67,0.00,,,0.00,VWS V14.00,2013-05-15 02:11:00,
2013-05-14 22:17:00,41.2,31.4,29.99,SSE,156,4.7,10.4,68,0.00,,,0.00,VWS V14.00,2013-05-15 02:17:00,
2013-05-14 22:23:00,40.8,31.4,29.99,SSE,158,5.7,10.4,69,0.00,,,0.00,VWS V14.00,2013-05-15 02:23:00,
2013-05-14 22:29:00,40.5,31.4,29.99,SE,146,5.7,10.4,70,0.00,,,0.00,VWS V14.00,2013-05-15 02:29:00,
2013-05-14 22:35:00,40.3,31.6,29.99,SSE,159,4.8,10.4,71,0.00,,,0.00,VWS V14.00,2013-05-15 02:35:00,
2013-05-14 22:41:00,40.0,31.6,29.99,SSE,165,4.7,10.4,72,0.00,,,0.00,VWS V14.00,2013-05-15 02:41:00,
2013-05-14 22:47:00,39.9,31.6,29.99,SSE,163,5.6,10.4,72,0.00,,,0.00,VWS V14.00,2013-05-15 02:47:00,
2013-05-14 22:50:00,42.4,33.1,30.01,NW,308,0.0,16.8,69,0.00,,,0.00,VWS V14.00,2013-05-15 02:50:00,
2013-05-14 22:53:00,39.8,31.7,30.00,SSE,156,4.7,10.4,72,0.00,,,0.00,VWS V14.00,2013-05-15 02:53:00,
2013-05-14 22:59:00,39.7,31.8,29.99,SSE,167,4.7,10.4,73,0.00,,,0.00,VWS V14.00,2013-05-15 02:59:00,
2013-05-14 23:00:00,42.4,33.3,30.01,NW,308,0.0,0.0,70,0.00,,,0.00,VWS V14.00,2013-05-15 03:00:00,
2013-05-14 23:05:00,39.4,31.8,29.99,SSE,155,5.4,10.4,74,0.00,,,0.00,VWS V14.00,2013-05-15 03:05:00,
2013-05-14 23:10:00,42.3,34.4,30.01,NW,308,0.0,0.0,73,0.00,,,0.00,VWS V14.00,2013-05-15 03:10:00,
2013-05-14 23:11:00,39.1,31.8,29.99,SSE,156,4.5,10.4,75,0.00,,,0.00,VWS V14.00,2013-05-15 03:11:00,
2013-05-14 23:17:00,38.9,31.7,29.99,SSE,156,5.7,10.4,75,0.00,,,0.00,VWS V14.00,2013-05-15 03:17:00,
2013-05-14 23:20:00,42.0,34.0,30.01,NW,308,0.0,0.0,73,0.00,,,0.00,VWS V14.00,2013-05-15 03:20:00,
2013-05-14 23:23:00,38.7,31.7,29.99,SE,143,5.5,10.4,76,0.00,,,0.00,VWS V14.00,2013-05-15 03:23:00,
2013-05-14 23:29:00,38.6,31.8,29.99,SSE,148,4.7,10.4,76,0.00,,,0.00,VWS V14.00,2013-05-15 03:29:00,
2013-05-14 23:30:00,41.9,34.0,30.00,NW,308,0.0,0.0,73,0.00,,,0.00,VWS V14.00,2013-05-15 03:30:00,
2013-05-14 23:35:00,38.6,31.8,29.99,SSE,155,4.8,10.4,76,0.00,,,0.00,VWS V14.00,2013-05-15 03:35:00,
2013-05-14 23:40:00,41.8,33.9,30.00,NW,308,0.0,0.0,73,0.00,,,0.00,VWS V14.00,2013-05-15 03:40:00,
2013-05-14 23:41:00,38.6,31.8,30.00,SSE,163,5.8,10.4,76,0.00,,,0.00,VWS V14.00,2013-05-15 03:41:00,
2013-05-14 23:47:00,38.4,31.7,30.00,SSE,158,5.9,7.5,76,0.00,,,0.00,VWS V14.00,2013-05-15 03:47:00,
2013-05-14 23:50:00,41.6,33.7,30.00,NW,308,0.0,0.0,73,0.00,,,0.00,VWS V14.00,2013-05-15 03:50:00,
2013-05-14 23:53:00,38.3,31.8,29.99,SSE,162,5.8,7.5,77,0.00,,,0.00,VWS V14.00,2013-05-15 03:53:00,